sensor_id;sensor_type;location;lat;lon;timestamp;P1;durP1;ratioP1;P2;durP2;ratioP2
46391;SDS011;32098;49.448;7.904;2023-01-01T00:01:35;8.60;;;5.70;;
46391;SDS011;32098;49.448;7.904;2023-01-01T00:04:06;8.60;;;5.93;;
46391;SDS011;32098;49.448;7.904;2023-01-01T00:06:37;8.13;;;5.77;;
46391;SDS011;32098;49.448;7.904;2023-01-01T00:09:03;7.03;;;5.50;;
46391;SDS011;32098;49.448;7.904;2023-01-01T00:11:49;7.27;;;4.90;;
46391;SDS011;32098;49.448;7.904;2023-01-01T00:14:15;7.63;;;5.45;;
46391;SDS011;32098;49.448;7.904;2023-01-01T00:16:41;5.43;;;4.13;;
46391;SDS011;32098;49.448;7.904;2023-01-01T00:19:08;6.05;;;4.50;;
46391;SDS011;32098;49.448;7.904;2023-01-01T00:21:34;4.73;;;3.90;;
46391;SDS011;32098;49.448;7.904;2023-01-01T00:24:01;4.60;;;3.77;;
46391;SDS011;32098;49.448;7.904;2023-01-01T00:26:27;4.70;;;3.90;;
46391;SDS011;32098;49.448;7.904;2023-01-01T00:29:00;5.23;;;3.70;;
46391;SDS011;32098;49.448;7.904;2023-01-01T00:31:27;4.32;;;3.38;;
46391;SDS011;32098;49.448;7.904;2023-01-01T00:33:54;6.27;;;3.47;;
46391;SDS011;32098;49.448;7.904;2023-01-01T00:36:21;3.47;;;2.93;;
46391;SDS011;32098;49.448;7.904;2023-01-01T00:38:50;4.83;;;3.23;;
46391;SDS011;32098;49.448;7.904;2023-01-01T00:41:17;4.67;;;2.90;;
46391;SDS011;32098;49.448;7.904;2023-01-01T00:43:44;7.03;;;3.27;;
46391;SDS011;32098;49.448;7.904;2023-01-01T00:46:10;3.67;;;2.53;;
46391;SDS011;32098;49.448;7.904;2023-01-01T00:48:38;3.90;;;2.60;;
46391;SDS011;32098;49.448;7.904;2023-01-01T00:51:04;3.65;;;2.40;;
46391;SDS011;32098;49.448;7.904;2023-01-01T00:53:31;4.83;;;2.67;;
46391;SDS011;32098;49.448;7.904;2023-01-01T00:55:58;3.73;;;2.40;;
46391;SDS011;32098;49.448;7.904;2023-01-01T00:58:24;4.00;;;2.60;;
46391;SDS011;32098;49.448;7.904;2023-01-01T01:00:51;4.30;;;2.17;;
46391;SDS011;32098;49.448;7.904;2023-01-01T01:03:18;4.13;;;1.97;;
46391;SDS011;32098;49.448;7.904;2023-01-01T01:08:30;2.67;;;1.93;;
46391;SDS011;32098;49.448;7.904;2023-01-01T01:13:36;3.53;;;1.77;;
46391;SDS011;32098;49.448;7.904;2023-01-01T01:16:11;2.80;;;1.90;;
46391;SDS011;32098;49.448;7.904;2023-01-01T01:18:42;4.18;;;2.40;;
46391;SDS011;32098;49.448;7.904;2023-01-01T01:21:09;3.05;;;1.77;;
46391;SDS011;32098;49.448;7.904;2023-01-01T01:23:39;2.17;;;1.60;;
46391;SDS011;32098;49.448;7.904;2023-01-01T01:26:07;2.88;;;2.03;;
46391;SDS011;32098;49.448;7.904;2023-01-01T01:28:33;3.53;;;1.90;;
46391;SDS011;32098;49.448;7.904;2023-01-01T01:31:00;3.50;;;2.10;;
46391;SDS011;32098;49.448;7.904;2023-01-01T01:33:26;2.58;;;1.77;;
46391;SDS011;32098;49.448;7.904;2023-01-01T01:35:53;2.73;;;1.93;;
46391;SDS011;32098;49.448;7.904;2023-01-01T01:38:19;3.05;;;2.00;;
46391;SDS011;32098;49.448;7.904;2023-01-01T01:40:45;4.07;;;1.70;;
46391;SDS011;32098;49.448;7.904;2023-01-01T01:43:20;2.88;;;1.95;;
46391;SDS011;32098;49.448;7.904;2023-01-01T01:45:48;3.07;;;1.80;;
46391;SDS011;32098;49.448;7.904;2023-01-01T01:48:15;2.80;;;1.93;;
46391;SDS011;32098;49.448;7.904;2023-01-01T01:50:41;3.13;;;1.80;;
46391;SDS011;32098;49.448;7.904;2023-01-01T01:53:18;3.40;;;1.90;;
46391;SDS011;32098;49.448;7.904;2023-01-01T01:55:52;2.80;;;1.80;;
46391;SDS011;32098;49.448;7.904;2023-01-01T01:58:24;3.83;;;1.70;;
46391;SDS011;32098;49.448;7.904;2023-01-01T02:00:53;4.57;;;2.00;;
46391;SDS011;32098;49.448;7.904;2023-01-01T02:03:26;2.37;;;1.87;;
46391;SDS011;32098;49.448;7.904;2023-01-01T02:05:57;2.22;;;1.50;;
46391;SDS011;32098;49.448;7.904;2023-01-01T02:08:24;4.17;;;1.63;;
46391;SDS011;32098;49.448;7.904;2023-01-01T02:10:51;4.03;;;1.77;;
46391;SDS011;32098;49.448;7.904;2023-01-01T02:13:17;3.97;;;1.83;;
46391;SDS011;32098;49.448;7.904;2023-01-01T02:18:23;4.50;;;1.60;;
46391;SDS011;32098;49.448;7.904;2023-01-01T02:23:46;2.93;;;1.50;;
46391;SDS011;32098;49.448;7.904;2023-01-01T02:26:29;1.80;;;1.40;;
46391;SDS011;32098;49.448;7.904;2023-01-01T02:34:43;3.00;;;1.88;;
46391;SDS011;32098;49.448;7.904;2023-01-01T02:37:15;4.00;;;1.80;;
46391;SDS011;32098;49.448;7.904;2023-01-01T02:39:47;5.13;;;2.03;;
46391;SDS011;32098;49.448;7.904;2023-01-01T02:42:20;4.70;;;2.30;;
46391;SDS011;32098;49.448;7.904;2023-01-01T02:44:51;4.73;;;1.87;;
46391;SDS011;32098;49.448;7.904;2023-01-01T02:47:19;3.77;;;1.83;;
46391;SDS011;32098;49.448;7.904;2023-01-01T02:49:48;3.03;;;1.63;;
46391;SDS011;32098;49.448;7.904;2023-01-01T02:52:41;2.63;;;1.65;;
46391;SDS011;32098;49.448;7.904;2023-01-01T03:01:08;3.30;;;1.53;;
46391;SDS011;32098;49.448;7.904;2023-01-01T03:03:49;2.40;;;1.73;;
46391;SDS011;32098;49.448;7.904;2023-01-01T03:14:36;4.97;;;2.03;;
46391;SDS011;32098;49.448;7.904;2023-01-01T03:17:16;3.50;;;1.70;;
46391;SDS011;32098;49.448;7.904;2023-01-01T03:19:45;3.23;;;1.67;;
46391;SDS011;32098;49.448;7.904;2023-01-01T03:22:15;3.07;;;1.67;;
46391;SDS011;32098;49.448;7.904;2023-01-01T03:24:45;3.30;;;1.73;;
46391;SDS011;32098;49.448;7.904;2023-01-01T03:27:20;3.73;;;1.90;;
46391;SDS011;32098;49.448;7.904;2023-01-01T03:29:50;4.73;;;2.17;;
46391;SDS011;32098;49.448;7.904;2023-01-01T03:32:30;2.33;;;2.07;;
46391;SDS011;32098;49.448;7.904;2023-01-01T03:35:21;3.63;;;1.97;;
46391;SDS011;32098;49.448;7.904;2023-01-01T03:37:51;5.18;;;2.50;;
46391;SDS011;32098;49.448;7.904;2023-01-01T03:40:21;3.07;;;2.00;;
46391;SDS011;32098;49.448;7.904;2023-01-01T03:42:49;4.77;;;2.00;;
46391;SDS011;32098;49.448;7.904;2023-01-01T03:45:23;3.93;;;1.83;;
46391;SDS011;32098;49.448;7.904;2023-01-01T03:47:55;3.10;;;1.70;;
46391;SDS011;32098;49.448;7.904;2023-01-01T03:50:24;4.10;;;1.83;;
46391;SDS011;32098;49.448;7.904;2023-01-01T03:53:12;3.20;;;2.10;;
46391;SDS011;32098;49.448;7.904;2023-01-01T03:56:16;3.80;;;1.87;;
46391;SDS011;32098;49.448;7.904;2023-01-01T04:01:56;2.53;;;1.93;;
46391;SDS011;32098;49.448;7.904;2023-01-01T04:04:24;2.13;;;1.75;;
46391;SDS011;32098;49.448;7.904;2023-01-01T04:06:52;4.03;;;1.70;;
46391;SDS011;32098;49.448;7.904;2023-01-01T04:09:20;4.43;;;2.00;;
46391;SDS011;32098;49.448;7.904;2023-01-01T04:11:51;3.23;;;1.77;;
46391;SDS011;32098;49.448;7.904;2023-01-01T04:16:58;3.88;;;1.92;;
46391;SDS011;32098;49.448;7.904;2023-01-01T04:19:25;5.28;;;1.70;;
46391;SDS011;32098;49.448;7.904;2023-01-01T04:21:52;5.73;;;2.00;;
46391;SDS011;32098;49.448;7.904;2023-01-01T04:24:19;2.97;;;1.87;;
46391;SDS011;32098;49.448;7.904;2023-01-01T04:26:45;4.70;;;2.07;;
46391;SDS011;32098;49.448;7.904;2023-01-01T04:29:13;2.90;;;1.87;;
46391;SDS011;32098;49.448;7.904;2023-01-01T04:31:40;4.07;;;1.97;;
46391;SDS011;32098;49.448;7.904;2023-01-01T04:34:06;8.50;;;2.00;;
46391;SDS011;32098;49.448;7.904;2023-01-01T04:36:33;4.83;;;2.20;;
46391;SDS011;32098;49.448;7.904;2023-01-01T04:39:00;3.00;;;1.97;;
46391;SDS011;32098;49.448;7.904;2023-01-01T04:41:29;3.50;;;1.97;;
46391;SDS011;32098;49.448;7.904;2023-01-01T04:43:55;5.00;;;2.00;;
46391;SDS011;32098;49.448;7.904;2023-01-01T04:46:22;4.33;;;1.90;;
46391;SDS011;32098;49.448;7.904;2023-01-01T04:48:49;4.10;;;1.90;;
46391;SDS011;32098;49.448;7.904;2023-01-01T04:51:16;6.30;;;1.90;;
46391;SDS011;32098;49.448;7.904;2023-01-01T04:53:44;4.23;;;2.00;;
46391;SDS011;32098;49.448;7.904;2023-01-01T04:56:15;4.43;;;1.80;;
46391;SDS011;32098;49.448;7.904;2023-01-01T04:58:43;5.63;;;2.07;;
46391;SDS011;32098;49.448;7.904;2023-01-01T05:01:29;5.00;;;2.10;;
46391;SDS011;32098;49.448;7.904;2023-01-01T05:03:57;3.77;;;1.60;;
46391;SDS011;32098;49.448;7.904;2023-01-01T05:06:24;3.73;;;2.00;;
46391;SDS011;32098;49.448;7.904;2023-01-01T05:08:52;5.80;;;1.80;;
46391;SDS011;32098;49.448;7.904;2023-01-01T05:11:21;4.47;;;1.70;;
46391;SDS011;32098;49.448;7.904;2023-01-01T05:13:50;4.13;;;2.07;;
46391;SDS011;32098;49.448;7.904;2023-01-01T05:16:18;4.47;;;1.63;;
46391;SDS011;32098;49.448;7.904;2023-01-01T05:18:46;4.27;;;2.00;;
46391;SDS011;32098;49.448;7.904;2023-01-01T05:21:18;7.63;;;2.13;;
46391;SDS011;32098;49.448;7.904;2023-01-01T05:23:52;4.00;;;1.90;;
46391;SDS011;32098;49.448;7.904;2023-01-01T05:26:20;5.20;;;2.20;;
46391;SDS011;32098;49.448;7.904;2023-01-01T05:28:49;2.33;;;1.60;;
46391;SDS011;32098;49.448;7.904;2023-01-01T05:31:16;3.67;;;1.63;;
46391;SDS011;32098;49.448;7.904;2023-01-01T05:33:45;5.47;;;2.00;;
46391;SDS011;32098;49.448;7.904;2023-01-01T05:36:19;5.50;;;1.90;;
46391;SDS011;32098;49.448;7.904;2023-01-01T05:38:47;5.33;;;1.80;;
46391;SDS011;32098;49.448;7.904;2023-01-01T05:41:15;5.17;;;1.87;;
46391;SDS011;32098;49.448;7.904;2023-01-01T05:43:43;4.07;;;1.80;;
46391;SDS011;32098;49.448;7.904;2023-01-01T05:46:11;4.17;;;2.00;;
46391;SDS011;32098;49.448;7.904;2023-01-01T05:48:48;4.13;;;2.20;;
46391;SDS011;32098;49.448;7.904;2023-01-01T05:51:16;4.80;;;2.00;;
46391;SDS011;32098;49.448;7.904;2023-01-01T05:53:44;5.53;;;2.13;;
46391;SDS011;32098;49.448;7.904;2023-01-01T05:56:11;3.43;;;1.93;;
46391;SDS011;32098;49.448;7.904;2023-01-01T05:58:38;3.73;;;1.77;;
46391;SDS011;32098;49.448;7.904;2023-01-01T06:01:10;6.60;;;1.90;;
46391;SDS011;32098;49.448;7.904;2023-01-01T06:03:39;6.83;;;1.87;;
46391;SDS011;32098;49.448;7.904;2023-01-01T06:06:08;4.30;;;1.90;;
46391;SDS011;32098;49.448;7.904;2023-01-01T06:08:36;5.70;;;2.00;;
46391;SDS011;32098;49.448;7.904;2023-01-01T06:11:04;5.27;;;2.00;;
46391;SDS011;32098;49.448;7.904;2023-01-01T06:13:33;4.00;;;1.83;;
46391;SDS011;32098;49.448;7.904;2023-01-01T06:16:00;7.27;;;2.20;;
46391;SDS011;32098;49.448;7.904;2023-01-01T06:18:28;4.37;;;1.97;;
46391;SDS011;32098;49.448;7.904;2023-01-01T06:21:09;5.93;;;1.90;;
46391;SDS011;32098;49.448;7.904;2023-01-01T06:23:39;3.27;;;1.70;;
46391;SDS011;32098;49.448;7.904;2023-01-01T06:26:10;4.20;;;2.10;;
46391;SDS011;32098;49.448;7.904;2023-01-01T06:28:38;5.83;;;2.10;;
46391;SDS011;32098;49.448;7.904;2023-01-01T06:31:05;4.13;;;1.90;;
46391;SDS011;32098;49.448;7.904;2023-01-01T06:33:34;5.27;;;2.00;;
46391;SDS011;32098;49.448;7.904;2023-01-01T06:36:01;3.57;;;2.00;;
46391;SDS011;32098;49.448;7.904;2023-01-01T06:38:31;6.10;;;2.07;;
46391;SDS011;32098;49.448;7.904;2023-01-01T06:40:59;4.53;;;2.20;;
46391;SDS011;32098;49.448;7.904;2023-01-01T06:43:28;5.30;;;2.00;;
46391;SDS011;32098;49.448;7.904;2023-01-01T06:46:01;5.40;;;2.10;;
46391;SDS011;32098;49.448;7.904;2023-01-01T06:48:48;7.10;;;2.37;;
46391;SDS011;32098;49.448;7.904;2023-01-01T06:51:20;5.23;;;1.90;;
46391;SDS011;32098;49.448;7.904;2023-01-01T06:53:48;5.80;;;1.70;;
46391;SDS011;32098;49.448;7.904;2023-01-01T06:56:16;4.97;;;1.80;;
46391;SDS011;32098;49.448;7.904;2023-01-01T06:58:44;6.63;;;2.20;;
46391;SDS011;32098;49.448;7.904;2023-01-01T07:01:12;3.10;;;1.90;;
46391;SDS011;32098;49.448;7.904;2023-01-01T07:03:42;6.57;;;2.30;;
46391;SDS011;32098;49.448;7.904;2023-01-01T07:06:10;7.27;;;2.40;;
46391;SDS011;32098;49.448;7.904;2023-01-01T07:08:36;5.20;;;1.77;;
46391;SDS011;32098;49.448;7.904;2023-01-01T07:11:03;5.07;;;2.10;;
46391;SDS011;32098;49.448;7.904;2023-01-01T07:13:30;6.00;;;2.20;;
46391;SDS011;32098;49.448;7.904;2023-01-01T07:15:57;4.60;;;1.93;;
46391;SDS011;32098;49.448;7.904;2023-01-01T07:18:25;3.83;;;1.77;;
46391;SDS011;32098;49.448;7.904;2023-01-01T07:20:52;6.73;;;2.03;;
46391;SDS011;32098;49.448;7.904;2023-01-01T07:23:21;3.43;;;1.90;;
46391;SDS011;32098;49.448;7.904;2023-01-01T07:25:48;5.67;;;1.73;;
46391;SDS011;32098;49.448;7.904;2023-01-01T07:28:15;6.23;;;2.37;;
46391;SDS011;32098;49.448;7.904;2023-01-01T07:30:42;4.97;;;2.20;;
46391;SDS011;32098;49.448;7.904;2023-01-01T07:33:12;4.70;;;1.77;;
46391;SDS011;32098;49.448;7.904;2023-01-01T07:35:40;6.23;;;2.13;;
46391;SDS011;32098;49.448;7.904;2023-01-01T07:38:06;6.43;;;2.37;;
46391;SDS011;32098;49.448;7.904;2023-01-01T07:40:33;6.30;;;2.10;;
46391;SDS011;32098;49.448;7.904;2023-01-01T07:42:59;5.67;;;2.10;;
46391;SDS011;32098;49.448;7.904;2023-01-01T07:45:26;5.67;;;1.97;;
46391;SDS011;32098;49.448;7.904;2023-01-01T07:47:53;5.10;;;2.13;;
46391;SDS011;32098;49.448;7.904;2023-01-01T07:50:22;4.97;;;2.20;;
46391;SDS011;32098;49.448;7.904;2023-01-01T07:52:49;6.47;;;2.03;;
46391;SDS011;32098;49.448;7.904;2023-01-01T07:55:17;5.97;;;2.27;;
46391;SDS011;32098;49.448;7.904;2023-01-01T07:57:46;7.03;;;2.10;;
46391;SDS011;32098;49.448;7.904;2023-01-01T08:00:15;5.97;;;2.00;;
46391;SDS011;32098;49.448;7.904;2023-01-01T08:02:44;5.77;;;2.03;;
46391;SDS011;32098;49.448;7.904;2023-01-01T08:05:11;6.67;;;2.10;;
46391;SDS011;32098;49.448;7.904;2023-01-01T08:07:37;5.13;;;2.27;;
46391;SDS011;32098;49.448;7.904;2023-01-01T08:10:04;5.70;;;1.97;;
46391;SDS011;32098;49.448;7.904;2023-01-01T08:12:32;3.00;;;1.90;;
46391;SDS011;32098;49.448;7.904;2023-01-01T08:14:59;5.17;;;1.97;;
46391;SDS011;32098;49.448;7.904;2023-01-01T08:17:25;8.77;;;2.60;;
46391;SDS011;32098;49.448;7.904;2023-01-01T08:19:52;5.77;;;1.90;;
46391;SDS011;32098;49.448;7.904;2023-01-01T08:22:18;6.50;;;2.20;;
46391;SDS011;32098;49.448;7.904;2023-01-01T08:24:45;6.60;;;1.97;;
46391;SDS011;32098;49.448;7.904;2023-01-01T08:27:14;8.33;;;2.23;;
46391;SDS011;32098;49.448;7.904;2023-01-01T08:29:42;5.70;;;2.30;;
46391;SDS011;32098;49.448;7.904;2023-01-01T08:32:10;6.43;;;2.20;;
46391;SDS011;32098;49.448;7.904;2023-01-01T08:34:37;6.70;;;2.33;;
46391;SDS011;32098;49.448;7.904;2023-01-01T08:37:04;5.20;;;2.10;;
46391;SDS011;32098;49.448;7.904;2023-01-01T08:39:31;5.60;;;2.20;;
46391;SDS011;32098;49.448;7.904;2023-01-01T08:41:57;5.50;;;2.47;;
46391;SDS011;32098;49.448;7.904;2023-01-01T08:44:23;4.30;;;1.70;;
46391;SDS011;32098;49.448;7.904;2023-01-01T08:46:53;7.37;;;2.30;;
46391;SDS011;32098;49.448;7.904;2023-01-01T08:49:19;5.77;;;1.77;;
46391;SDS011;32098;49.448;7.904;2023-01-01T08:51:46;5.47;;;2.07;;
46391;SDS011;32098;49.448;7.904;2023-01-01T08:54:12;7.13;;;2.20;;
46391;SDS011;32098;49.448;7.904;2023-01-01T08:56:38;4.03;;;1.93;;
46391;SDS011;32098;49.448;7.904;2023-01-01T08:59:05;7.40;;;2.77;;
46391;SDS011;32098;49.448;7.904;2023-01-01T09:01:31;6.83;;;2.50;;
46391;SDS011;32098;49.448;7.904;2023-01-01T09:03:58;3.87;;;1.80;;
46391;SDS011;32098;49.448;7.904;2023-01-01T09:06:25;7.63;;;1.80;;
46391;SDS011;32098;49.448;7.904;2023-01-01T09:08:51;4.63;;;1.80;;
46391;SDS011;32098;49.448;7.904;2023-01-01T09:11:20;5.07;;;2.30;;
46391;SDS011;32098;49.448;7.904;2023-01-01T09:13:52;7.38;;;2.70;;
46391;SDS011;32098;49.448;7.904;2023-01-01T09:16:19;7.88;;;2.10;;
46391;SDS011;32098;49.448;7.904;2023-01-01T09:18:46;6.15;;;2.17;;
46391;SDS011;32098;49.448;7.904;2023-01-01T09:21:13;4.43;;;2.10;;
46391;SDS011;32098;49.448;7.904;2023-01-01T09:23:39;6.30;;;2.10;;
46391;SDS011;32098;49.448;7.904;2023-01-01T09:26:07;10.18;;;2.58;;
46391;SDS011;32098;49.448;7.904;2023-01-01T09:28:35;5.82;;;2.70;;
46391;SDS011;32098;49.448;7.904;2023-01-01T09:31:03;7.15;;;2.00;;
46391;SDS011;32098;49.448;7.904;2023-01-01T09:33:33;4.00;;;2.22;;
46391;SDS011;32098;49.448;7.904;2023-01-01T09:38:51;5.70;;;2.10;;
46391;SDS011;32098;49.448;7.904;2023-01-01T09:44:25;4.47;;;2.10;;
46391;SDS011;32098;49.448;7.904;2023-01-01T09:47:37;6.00;;;1.90;;
46391;SDS011;32098;49.448;7.904;2023-01-01T09:50:36;4.85;;;2.00;;
46391;SDS011;32098;49.448;7.904;2023-01-01T09:53:12;4.57;;;1.75;;
46391;SDS011;32098;49.448;7.904;2023-01-01T09:55:48;7.20;;;2.17;;
46391;SDS011;32098;49.448;7.904;2023-01-01T09:58:20;7.65;;;2.03;;
46391;SDS011;32098;49.448;7.904;2023-01-01T10:00:51;7.85;;;2.47;;
46391;SDS011;32098;49.448;7.904;2023-01-01T10:03:25;5.78;;;2.30;;
46391;SDS011;32098;49.448;7.904;2023-01-01T10:08:49;7.00;;;2.10;;
46391;SDS011;32098;49.448;7.904;2023-01-01T10:14:40;7.97;;;2.10;;
46391;SDS011;32098;49.448;7.904;2023-01-01T10:17:20;7.30;;;2.20;;
46391;SDS011;32098;49.448;7.904;2023-01-01T10:22:43;5.35;;;2.20;;
46391;SDS011;32098;49.448;7.904;2023-01-01T10:27:59;7.72;;;2.33;;
46391;SDS011;32098;49.448;7.904;2023-01-01T10:30:30;7.90;;;1.90;;
46391;SDS011;32098;49.448;7.904;2023-01-01T10:32:56;5.93;;;2.00;;
46391;SDS011;32098;49.448;7.904;2023-01-01T10:35:33;6.85;;;2.25;;
46391;SDS011;32098;49.448;7.904;2023-01-01T10:38:04;6.13;;;2.03;;
46391;SDS011;32098;49.448;7.904;2023-01-01T10:40:31;8.55;;;2.67;;
46391;SDS011;32098;49.448;7.904;2023-01-01T10:42:59;5.30;;;2.00;;
46391;SDS011;32098;49.448;7.904;2023-01-01T10:45:29;5.00;;;2.00;;
46391;SDS011;32098;49.448;7.904;2023-01-01T10:48:09;5.15;;;1.92;;
46391;SDS011;32098;49.448;7.904;2023-01-01T10:50:48;6.65;;;2.45;;
46391;SDS011;32098;49.448;7.904;2023-01-01T10:55:51;6.90;;;1.95;;
46391;SDS011;32098;49.448;7.904;2023-01-01T10:58:35;5.53;;;1.95;;
46391;SDS011;32098;49.448;7.904;2023-01-01T11:01:05;4.70;;;2.15;;
46391;SDS011;32098;49.448;7.904;2023-01-01T11:03:36;5.40;;;2.10;;
46391;SDS011;32098;49.448;7.904;2023-01-01T11:06:36;5.25;;;2.05;;
46391;SDS011;32098;49.448;7.904;2023-01-01T11:09:06;5.80;;;1.92;;
46391;SDS011;32098;49.448;7.904;2023-01-01T11:11:44;7.05;;;2.40;;
46391;SDS011;32098;49.448;7.904;2023-01-01T11:14:25;4.38;;;2.13;;
46391;SDS011;32098;49.448;7.904;2023-01-01T11:16:52;5.40;;;2.35;;
46391;SDS011;32098;49.448;7.904;2023-01-01T11:19:34;8.43;;;2.70;;
46391;SDS011;32098;49.448;7.904;2023-01-01T11:22:03;7.73;;;2.57;;
46391;SDS011;32098;49.448;7.904;2023-01-01T11:24:31;7.32;;;2.53;;
46391;SDS011;32098;49.448;7.904;2023-01-01T11:27:19;5.30;;;2.00;;
46391;SDS011;32098;49.448;7.904;2023-01-01T11:29:48;5.90;;;3.03;;
46391;SDS011;32098;49.448;7.904;2023-01-01T11:32:25;6.97;;;2.43;;
46391;SDS011;32098;49.448;7.904;2023-01-01T11:35:00;6.57;;;2.33;;
46391;SDS011;32098;49.448;7.904;2023-01-01T11:37:31;8.18;;;2.80;;
46391;SDS011;32098;49.448;7.904;2023-01-01T11:40:01;8.60;;;2.60;;
46391;SDS011;32098;49.448;7.904;2023-01-01T11:42:30;8.10;;;2.28;;
46391;SDS011;32098;49.448;7.904;2023-01-01T11:44:59;7.70;;;2.25;;
46391;SDS011;32098;49.448;7.904;2023-01-01T11:47:38;5.93;;;2.17;;
46391;SDS011;32098;49.448;7.904;2023-01-01T11:58:33;7.72;;;2.40;;
46391;SDS011;32098;49.448;7.904;2023-01-01T12:01:05;8.68;;;3.13;;
46391;SDS011;32098;49.448;7.904;2023-01-01T12:03:40;5.60;;;3.08;;
46391;SDS011;32098;49.448;7.904;2023-01-01T12:06:24;6.68;;;2.70;;
46391;SDS011;32098;49.448;7.904;2023-01-01T12:11:49;7.05;;;2.80;;
46391;SDS011;32098;49.448;7.904;2023-01-01T12:17:18;5.47;;;2.45;;
46391;SDS011;32098;49.448;7.904;2023-01-01T12:19:47;5.22;;;2.50;;
46391;SDS011;32098;49.448;7.904;2023-01-01T12:22:35;6.40;;;2.33;;
46391;SDS011;32098;49.448;7.904;2023-01-01T12:25:01;7.15;;;3.03;;
46391;SDS011;32098;49.448;7.904;2023-01-01T12:30:19;6.80;;;3.22;;
46391;SDS011;32098;49.448;7.904;2023-01-01T12:35:35;6.97;;;2.92;;
46391;SDS011;32098;49.448;7.904;2023-01-01T12:38:26;5.05;;;3.00;;
46391;SDS011;32098;49.448;7.904;2023-01-01T12:40:58;8.60;;;2.45;;
46391;SDS011;32098;49.448;7.904;2023-01-01T12:43:41;5.10;;;2.33;;
46391;SDS011;32098;49.448;7.904;2023-01-01T12:46:20;7.82;;;2.30;;
46391;SDS011;32098;49.448;7.904;2023-01-01T12:57:31;5.60;;;2.78;;
46391;SDS011;32098;49.448;7.904;2023-01-01T13:00:26;4.72;;;2.08;;
46391;SDS011;32098;49.448;7.904;2023-01-01T13:02:58;6.65;;;2.70;;
46391;SDS011;32098;49.448;7.904;2023-01-01T13:08:09;7.47;;;2.90;;
46391;SDS011;32098;49.448;7.904;2023-01-01T13:10:36;7.00;;;2.67;;
46391;SDS011;32098;49.448;7.904;2023-01-01T13:13:05;8.63;;;2.50;;
46391;SDS011;32098;49.448;7.904;2023-01-01T13:20:42;9.15;;;2.65;;
46391;SDS011;32098;49.448;7.904;2023-01-01T13:26:30;4.07;;;1.98;;
46391;SDS011;32098;49.448;7.904;2023-01-01T13:31:58;5.33;;;2.20;;
46391;SDS011;32098;49.448;7.904;2023-01-01T13:42:46;5.55;;;2.50;;
46391;SDS011;32098;49.448;7.904;2023-01-01T13:45:33;9.07;;;4.07;;
46391;SDS011;32098;49.448;7.904;2023-01-01T13:51:35;8.50;;;2.75;;
46391;SDS011;32098;49.448;7.904;2023-01-01T13:54:36;8.40;;;3.00;;
46391;SDS011;32098;49.448;7.904;2023-01-01T14:02:45;7.47;;;2.87;;
46391;SDS011;32098;49.448;7.904;2023-01-01T14:08:24;8.23;;;2.57;;
46391;SDS011;32098;49.448;7.904;2023-01-01T14:10:53;4.50;;;2.40;;
46391;SDS011;32098;49.448;7.904;2023-01-01T14:13:20;5.93;;;2.30;;
46391;SDS011;32098;49.448;7.904;2023-01-01T14:16:02;8.60;;;2.80;;
46391;SDS011;32098;49.448;7.904;2023-01-01T14:21:10;8.37;;;3.03;;
46391;SDS011;32098;49.448;7.904;2023-01-01T14:23:43;9.27;;;3.40;;
46391;SDS011;32098;49.448;7.904;2023-01-01T14:26:16;7.82;;;3.63;;
46391;SDS011;32098;49.448;7.904;2023-01-01T14:28:45;6.53;;;3.70;;
46391;SDS011;32098;49.448;7.904;2023-01-01T14:31:13;8.27;;;3.50;;
46391;SDS011;32098;49.448;7.904;2023-01-01T14:33:42;8.73;;;3.63;;
46391;SDS011;32098;49.448;7.904;2023-01-01T14:36:48;9.07;;;4.00;;
46391;SDS011;32098;49.448;7.904;2023-01-01T14:39:02;7.25;;;3.78;;
46391;SDS011;32098;49.448;7.904;2023-01-01T14:41:29;8.70;;;2.95;;
46391;SDS011;32098;49.448;7.904;2023-01-01T14:46:39;10.43;;;6.97;;
46391;SDS011;32098;49.448;7.904;2023-01-01T14:49:09;7.43;;;5.55;;
46391;SDS011;32098;49.448;7.904;2023-01-01T14:51:43;7.95;;;4.65;;
46391;SDS011;32098;49.448;7.904;2023-01-01T14:54:17;9.38;;;3.90;;
46391;SDS011;32098;49.448;7.904;2023-01-01T14:56:47;14.05;;;6.78;;
46391;SDS011;32098;49.448;7.904;2023-01-01T15:01:59;14.48;;;6.55;;
46391;SDS011;32098;49.448;7.904;2023-01-01T15:04:37;34.10;;;16.98;;
46391;SDS011;32098;49.448;7.904;2023-01-01T15:07:04;22.80;;;11.38;;
46391;SDS011;32098;49.448;7.904;2023-01-01T15:09:31;23.93;;;14.33;;
46391;SDS011;32098;49.448;7.904;2023-01-01T15:11:58;13.20;;;8.40;;
46391;SDS011;32098;49.448;7.904;2023-01-01T15:19:28;15.38;;;9.07;;
46391;SDS011;32098;49.448;7.904;2023-01-01T15:21:55;14.70;;;7.10;;
46391;SDS011;32098;49.448;7.904;2023-01-01T15:24:23;14.03;;;6.30;;
46391;SDS011;32098;49.448;7.904;2023-01-01T15:26:53;9.55;;;4.32;;
46391;SDS011;32098;49.448;7.904;2023-01-01T15:29:28;6.10;;;3.40;;
46391;SDS011;32098;49.448;7.904;2023-01-01T15:32:00;8.00;;;3.40;;
46391;SDS011;32098;49.448;7.904;2023-01-01T15:34:41;7.22;;;5.60;;
46391;SDS011;32098;49.448;7.904;2023-01-01T15:37:14;8.48;;;3.90;;
46391;SDS011;32098;49.448;7.904;2023-01-01T15:39:51;8.40;;;2.70;;
46391;SDS011;32098;49.448;7.904;2023-01-01T15:42:42;8.68;;;5.20;;
46391;SDS011;32098;49.448;7.904;2023-01-01T15:45:35;8.20;;;4.72;;
46391;SDS011;32098;49.448;7.904;2023-01-01T15:50:31;5.95;;;3.10;;
46391;SDS011;32098;49.448;7.904;2023-01-01T15:53:08;7.88;;;3.58;;
46391;SDS011;32098;49.448;7.904;2023-01-01T15:55:43;9.87;;;4.17;;
46391;SDS011;32098;49.448;7.904;2023-01-01T15:58:36;13.13;;;6.63;;
46391;SDS011;32098;49.448;7.904;2023-01-01T16:01:12;10.10;;;5.07;;
46391;SDS011;32098;49.448;7.904;2023-01-01T16:03:43;8.27;;;4.07;;
46391;SDS011;32098;49.448;7.904;2023-01-01T16:06:15;7.65;;;2.88;;
46391;SDS011;32098;49.448;7.904;2023-01-01T16:08:43;4.63;;;2.53;;
46391;SDS011;32098;49.448;7.904;2023-01-01T16:11:10;8.17;;;2.20;;
46391;SDS011;32098;49.448;7.904;2023-01-01T16:13:36;6.53;;;2.60;;
46391;SDS011;32098;49.448;7.904;2023-01-01T16:16:03;7.55;;;2.70;;
46391;SDS011;32098;49.448;7.904;2023-01-01T16:18:31;5.67;;;2.10;;
46391;SDS011;32098;49.448;7.904;2023-01-01T16:20:59;7.45;;;2.90;;
46391;SDS011;32098;49.448;7.904;2023-01-01T16:23:26;6.35;;;3.17;;
46391;SDS011;32098;49.448;7.904;2023-01-01T16:25:53;6.63;;;2.60;;
46391;SDS011;32098;49.448;7.904;2023-01-01T16:28:19;8.57;;;3.67;;
46391;SDS011;32098;49.448;7.904;2023-01-01T16:30:46;8.87;;;3.67;;
46391;SDS011;32098;49.448;7.904;2023-01-01T16:33:14;8.97;;;4.17;;
46391;SDS011;32098;49.448;7.904;2023-01-01T16:35:42;13.55;;;4.55;;
46391;SDS011;32098;49.448;7.904;2023-01-01T16:38:09;12.93;;;7.10;;
46391;SDS011;32098;49.448;7.904;2023-01-01T16:40:36;7.97;;;4.97;;
46391;SDS011;32098;49.448;7.904;2023-01-01T16:43:03;9.87;;;3.83;;
46391;SDS011;32098;49.448;7.904;2023-01-01T16:45:34;10.50;;;6.03;;
46391;SDS011;32098;49.448;7.904;2023-01-01T16:48:01;9.13;;;5.10;;
46391;SDS011;32098;49.448;7.904;2023-01-01T16:50:27;9.40;;;5.63;;
46391;SDS011;32098;49.448;7.904;2023-01-01T16:52:54;13.87;;;5.63;;
46391;SDS011;32098;49.448;7.904;2023-01-01T16:55:20;9.47;;;2.90;;
46391;SDS011;32098;49.448;7.904;2023-01-01T16:57:47;4.47;;;2.60;;
46391;SDS011;32098;49.448;7.904;2023-01-01T17:00:13;10.43;;;2.70;;
46391;SDS011;32098;49.448;7.904;2023-01-01T17:02:40;21.83;;;16.70;;
46391;SDS011;32098;49.448;7.904;2023-01-01T17:05:08;16.83;;;12.17;;
46391;SDS011;32098;49.448;7.904;2023-01-01T17:07:35;15.67;;;12.37;;
46391;SDS011;32098;49.448;7.904;2023-01-01T17:10:02;28.50;;;22.47;;
46391;SDS011;32098;49.448;7.904;2023-01-01T17:12:29;26.13;;;20.87;;
46391;SDS011;32098;49.448;7.904;2023-01-01T17:15:03;10.37;;;7.10;;
46391;SDS011;32098;49.448;7.904;2023-01-01T17:17:30;9.60;;;3.47;;
46391;SDS011;32098;49.448;7.904;2023-01-01T17:19:56;6.70;;;3.37;;
46391;SDS011;32098;49.448;7.904;2023-01-01T17:22:23;10.83;;;4.27;;